createdAt,value
2022-11-13T00:02:13.856Z,2.78
2022-11-13T00:05:00.988Z,2.90
2022-11-13T00:07:48.264Z,2.60
2022-11-13T00:10:36.542Z,3.25
2022-11-13T00:13:29.056Z,3.03
2022-11-13T00:16:18.098Z,2.80
2022-11-13T00:19:05.068Z,2.97
2022-11-13T00:21:52.052Z,2.80
2022-11-13T00:24:39.306Z,2.75
2022-11-13T00:27:27.786Z,3.00
2022-11-13T00:30:19.296Z,3.47
2022-11-13T00:33:07.204Z,3.08
2022-11-13T00:35:54.544Z,2.50
2022-11-13T00:38:43.797Z,2.45
2022-11-13T00:41:31.735Z,2.33
2022-11-13T00:44:20.946Z,2.70
2022-11-13T00:47:11.555Z,2.35
2022-11-13T00:50:03.009Z,2.63
2022-11-13T00:52:53.511Z,2.63
2022-11-13T00:55:42.230Z,2.88
2022-11-13T00:58:30.474Z,2.35
2022-11-13T01:01:20.765Z,2.58
2022-11-13T01:04:07.591Z,2.47
2022-11-13T01:06:55.479Z,2.53
2022-11-13T01:09:42.965Z,2.20
2022-11-13T01:12:29.957Z,2.38
2022-11-13T01:15:17.489Z,2.58
2022-11-13T01:18:06.497Z,2.90
2022-11-13T01:20:53.848Z,2.28
2022-11-13T01:23:41.130Z,2.05
2022-11-13T01:26:29.209Z,2.10
2022-11-13T01:29:16.490Z,2.35
2022-11-13T01:32:03.821Z,2.42
2022-11-13T01:34:52.112Z,2.22
2022-11-13T01:37:39.372Z,1.95
2022-11-13T01:40:26.762Z,1.98
2022-11-13T01:43:21.499Z,2.03
2022-11-13T01:46:11.471Z,1.85
2022-11-13T01:49:01.684Z,2.20
2022-11-13T01:51:51.206Z,1.98
2022-11-13T01:54:40.025Z,1.95
2022-11-13T01:57:27.259Z,2.10
2022-11-13T02:00:14.854Z,2.20
2022-11-13T02:03:01.638Z,1.95
2022-11-13T02:05:48.928Z,1.95
2022-11-13T02:08:37.350Z,1.85
2022-11-13T02:11:24.585Z,1.88
2022-11-13T02:14:11.854Z,1.85
2022-11-13T02:17:01.221Z,1.80
2022-11-13T02:19:50.944Z,1.70
2022-11-13T02:22:40.995Z,1.90
2022-11-13T02:25:30.443Z,1.90
2022-11-13T02:28:17.662Z,1.88
2022-11-13T02:31:08.517Z,2.05
2022-11-13T02:33:55.531Z,1.98
2022-11-13T02:36:42.603Z,1.95
2022-11-13T02:39:29.929Z,1.85
2022-11-13T02:42:18.572Z,1.60
2022-11-13T02:45:06.572Z,2.00
2022-11-13T02:47:53.745Z,2.00
2022-11-13T02:50:47.660Z,2.63
2022-11-13T02:53:34.893Z,2.05
2022-11-13T02:56:21.944Z,2.10
2022-11-13T02:59:10.731Z,1.90
2022-11-13T03:01:58.297Z,1.73
2022-11-13T03:05:10.866Z,1.80
2022-11-13T03:07:53.684Z,1.65
2022-11-13T03:10:40.657Z,1.90
2022-11-13T03:13:27.737Z,2.10
2022-11-13T03:16:17.688Z,2.95
2022-11-13T03:19:04.862Z,2.65
2022-11-13T03:21:52.140Z,3.38
2022-11-13T03:24:39.236Z,2.95
2022-11-13T03:27:26.125Z,3.30
2022-11-13T03:30:13.924Z,3.05
2022-11-13T03:33:02.577Z,3.15
2022-11-13T03:35:49.820Z,3.15
2022-11-13T03:38:37.644Z,3.08
2022-11-13T03:41:26.356Z,2.65
2022-11-13T03:44:13.923Z,2.75
2022-11-13T03:47:01.728Z,2.70
2022-11-13T03:49:50.090Z,2.25
2022-11-13T03:52:37.248Z,2.40
2022-11-13T03:55:24.450Z,2.30
2022-11-13T03:58:11.672Z,2.50
2022-11-13T04:00:58.707Z,2.83
2022-11-13T04:03:45.944Z,3.00
2022-11-13T04:06:34.669Z,2.50
2022-11-13T04:09:21.690Z,2.92
2022-11-13T04:12:09.164Z,3.40
2022-11-13T04:14:56.453Z,3.60
2022-11-13T04:17:43.802Z,3.55
2022-11-13T04:20:31.469Z,3.28
2022-11-13T04:23:19.898Z,3.60
2022-11-13T04:26:07.275Z,3.20
2022-11-13T04:28:54.548Z,3.20
2022-11-13T04:31:41.457Z,3.30
2022-11-13T04:34:28.680Z,3.50
2022-11-13T04:37:15.834Z,3.50
2022-11-13T04:40:04.213Z,3.42
2022-11-13T04:42:50.610Z,3.30
2022-11-13T04:45:37.564Z,3.90
2022-11-13T04:48:25.342Z,3.55
2022-11-13T04:51:12.639Z,3.67
2022-11-13T04:54:00.020Z,3.42
2022-11-13T04:56:48.492Z,3.97
2022-11-13T04:59:37.591Z,3.17
2022-11-13T05:02:24.892Z,2.65
2022-11-13T05:05:12.345Z,3.35
2022-11-13T05:07:59.536Z,3.10
2022-11-13T05:10:46.483Z,3.15
2022-11-13T05:13:35.928Z,3.40
2022-11-13T05:16:23.434Z,2.60
2022-11-13T05:19:10.758Z,2.85
2022-11-13T05:21:57.755Z,3.05
2022-11-13T05:24:44.692Z,3.30
2022-11-13T05:27:32.604Z,3.13
2022-11-13T05:30:21.239Z,3.40
2022-11-13T05:33:08.513Z,3.60
2022-11-13T05:35:55.521Z,3.30
2022-11-13T05:38:42.847Z,3.08
2022-11-13T05:41:29.909Z,2.72
2022-11-13T05:44:17.305Z,3.10
2022-11-13T05:47:05.591Z,2.80
2022-11-13T05:49:52.658Z,3.22
2022-11-13T05:52:39.660Z,3.05
2022-11-13T05:55:26.755Z,3.40
2022-11-13T05:58:13.848Z,2.88
2022-11-13T06:01:07.671Z,2.80
2022-11-13T06:03:56.741Z,2.47
2022-11-13T06:06:43.744Z,2.78
2022-11-13T06:09:31.364Z,3.03
2022-11-13T06:12:18.531Z,2.80
2022-11-13T06:15:05.772Z,2.90
2022-11-13T06:17:52.755Z,2.65
2022-11-13T06:20:41.164Z,3.42
2022-11-13T06:23:28.316Z,2.97
2022-11-13T06:26:16.311Z,3.33
2022-11-13T06:29:04.601Z,3.42
2022-11-13T06:31:51.916Z,3.88
2022-11-13T06:34:38.882Z,4.03
2022-11-13T06:37:29.626Z,4.85
2022-11-13T06:40:19.696Z,4.70
2022-11-13T06:43:07.012Z,4.20
2022-11-13T06:45:54.284Z,4.50
2022-11-13T06:48:41.427Z,4.32
2022-11-13T06:51:29.274Z,3.75
2022-11-13T06:54:18.169Z,3.70
2022-11-13T06:57:05.644Z,3.50
2022-11-13T06:59:52.872Z,4.07
2022-11-13T07:02:39.765Z,4.03
2022-11-13T07:05:26.845Z,3.83
2022-11-13T07:08:14.478Z,3.38
2022-11-13T07:11:03.139Z,3.47
2022-11-13T07:13:50.244Z,3.55
2022-11-13T07:17:04.339Z,3.92
2022-11-13T07:19:44.736Z,3.50
2022-11-13T07:22:32.169Z,3.55
2022-11-13T07:25:19.729Z,3.58
2022-11-13T07:28:08.602Z,3.25
2022-11-13T07:30:55.542Z,3.50
2022-11-13T07:33:43.179Z,3.45
2022-11-13T07:36:30.666Z,3.85
2022-11-13T07:39:18.023Z,3.83
2022-11-13T07:42:05.455Z,3.65
2022-11-13T07:44:55.293Z,3.63
2022-11-13T07:47:43.321Z,3.60
2022-11-13T07:50:31.498Z,3.50
2022-11-13T07:53:19.248Z,3.90
2022-11-13T07:56:06.411Z,3.55
2022-11-13T07:58:53.581Z,4.43
2022-11-13T08:01:42.340Z,5.80
2022-11-13T08:04:29.517Z,6.18
2022-11-13T08:07:16.609Z,5.85
2022-11-13T08:10:03.862Z,5.63
2022-11-13T08:12:50.852Z,5.53
2022-11-13T08:15:38.085Z,5.85
2022-11-13T08:18:26.881Z,4.97
2022-11-13T08:21:15.190Z,5.47
2022-11-13T08:24:02.556Z,4.97
2022-11-13T08:26:49.417Z,5.05
2022-11-13T08:29:38.122Z,3.80
2022-11-13T08:32:25.263Z,3.90
2022-11-13T08:35:18.989Z,4.07
2022-11-13T08:38:07.632Z,4.22
2022-11-13T08:40:54.887Z,4.93
2022-11-13T08:43:41.988Z,4.05
2022-11-13T08:46:29.109Z,4.18
2022-11-13T08:49:16.201Z,4.25
2022-11-13T08:52:05.219Z,4.88
2022-11-13T08:54:52.559Z,4.25
2022-11-13T08:57:41.021Z,4.50
2022-11-13T09:00:28.104Z,4.88
2022-11-13T09:03:15.396Z,4.63
2022-11-13T09:06:02.544Z,4.68
2022-11-13T09:08:51.560Z,3.65
2022-11-13T09:11:41.358Z,4.88
2022-11-13T09:14:30.702Z,4.53
2022-11-13T09:17:21.043Z,5.10
2022-11-13T09:20:13.546Z,5.13
2022-11-13T09:23:01.995Z,4.63
2022-11-13T09:25:50.752Z,6.22
2022-11-13T09:28:38.252Z,5.63
2022-11-13T09:31:25.479Z,5.97
2022-11-13T09:34:12.804Z,5.88
2022-11-13T09:37:00.084Z,5.60
2022-11-13T09:39:47.035Z,5.63
2022-11-13T09:42:36.697Z,6.00
2022-11-13T09:45:24.255Z,5.55
2022-11-13T09:48:15.203Z,5.07
2022-11-13T09:51:05.896Z,5.90
2022-11-13T09:53:53.108Z,5.85
2022-11-13T09:56:42.642Z,5.50
2022-11-13T09:59:33.498Z,5.07
2022-11-13T10:02:23.792Z,4.88
2022-11-13T10:05:15.846Z,5.05
2022-11-13T10:08:06.972Z,4.10
2022-11-13T10:10:57.995Z,4.60
2022-11-13T10:13:46.454Z,4.40
2022-11-13T10:16:36.519Z,3.92
2022-11-13T10:19:34.219Z,3.65
2022-11-13T10:22:32.658Z,3.47
2022-11-13T10:25:22.409Z,4.03
2022-11-13T10:28:43.168Z,3.45
2022-11-13T10:31:21.114Z,2.90
2022-11-13T10:34:09.931Z,2.92
2022-11-13T10:37:02.467Z,2.63
2022-11-13T10:39:50.244Z,2.85
2022-11-13T10:42:39.863Z,2.70
2022-11-13T10:45:27.216Z,2.35
2022-11-13T10:48:24.681Z,2.20
2022-11-13T10:51:22.828Z,2.42
2022-11-13T10:54:22.343Z,2.83
2022-11-13T10:57:21.149Z,2.72
2022-11-13T11:00:21.199Z,2.80
2022-11-13T11:03:10.055Z,3.53
2022-11-13T11:05:57.844Z,3.90
2022-11-13T11:08:46.738Z,4.68
2022-11-13T11:11:51.528Z,3.97
2022-11-13T11:14:40.998Z,4.03
2022-11-13T11:17:30.574Z,3.97
2022-11-13T11:20:26.055Z,4.40
2022-11-13T11:23:18.529Z,5.28
2022-11-13T11:26:10.406Z,3.85
2022-11-13T11:29:03.978Z,4.03
2022-11-13T11:31:53.045Z,3.58
2022-11-13T11:34:42.609Z,3.00
2022-11-13T11:37:33.201Z,4.07
2022-11-13T11:40:24.042Z,4.13
2022-11-13T11:43:18.505Z,3.50
2022-11-13T11:46:05.575Z,3.72
2022-11-13T11:48:52.845Z,3.00
2022-11-13T11:51:46.424Z,2.70
2022-11-13T11:54:42.501Z,2.03
2022-11-13T11:57:38.877Z,2.30
2022-11-13T12:00:29.139Z,1.80
2022-11-13T12:03:30.810Z,2.40
2022-11-13T12:06:21.401Z,2.22
2022-11-13T12:09:11.356Z,2.65
2022-11-13T12:12:02.037Z,2.03
2022-11-13T12:14:52.635Z,2.33
2022-11-13T12:17:45.759Z,2.13
2022-11-13T12:20:37.201Z,2.25
2022-11-13T12:23:30.967Z,2.00
2022-11-13T12:26:21.845Z,2.00
2022-11-13T12:29:14.831Z,2.30
2022-11-13T12:32:08.887Z,2.10
2022-11-13T12:34:58.671Z,2.65
2022-11-13T12:37:49.725Z,3.05
2022-11-13T12:40:44.253Z,2.03
2022-11-13T12:43:46.405Z,2.63
2022-11-13T12:46:37.682Z,2.35
2022-11-13T12:49:28.231Z,2.35
2022-11-13T12:52:22.822Z,2.30
2022-11-13T12:55:26.181Z,2.35
2022-11-13T12:58:20.600Z,2.15
2022-11-13T13:01:16.055Z,2.40
2022-11-13T13:04:18.278Z,2.40
2022-11-13T13:07:10.478Z,3.38
2022-11-13T13:10:07.179Z,2.97
2022-11-13T13:12:58.385Z,2.92
2022-11-13T13:15:46.637Z,3.35
2022-11-13T13:18:34.823Z,2.55
2022-11-13T13:21:23.194Z,3.00
2022-11-13T13:24:11.465Z,2.08
2022-11-13T13:27:01.156Z,2.47
2022-11-13T13:29:48.369Z,2.75
2022-11-13T13:32:39.124Z,2.40
2022-11-13T13:35:29.352Z,4.63
2022-11-13T13:38:18.530Z,3.13
2022-11-13T13:41:16.424Z,2.80
2022-11-13T13:44:18.265Z,2.95
2022-11-13T13:47:12.267Z,2.60
2022-11-13T13:49:59.759Z,2.63
2022-11-13T13:52:51.175Z,3.13
2022-11-13T13:55:47.332Z,3.00
2022-11-13T13:58:35.972Z,3.58
2022-11-13T14:01:29.942Z,3.65
2022-11-13T14:04:20.011Z,2.38
2022-11-13T14:07:19.960Z,3.10
2022-11-13T14:10:08.898Z,4.03
2022-11-13T14:12:57.446Z,4.07
2022-11-13T14:15:44.736Z,3.92
2022-11-13T14:18:32.192Z,3.75
2022-11-13T14:21:23.025Z,3.20
2022-11-13T14:24:12.513Z,3.28
2022-11-13T14:27:00.542Z,3.20
2022-11-13T14:29:48.737Z,3.65
2022-11-13T14:32:45.744Z,2.97
2022-11-13T14:35:34.520Z,3.38
2022-11-13T14:38:24.721Z,3.30
2022-11-13T14:41:21.119Z,3.75
2022-11-13T14:44:08.540Z,4.20
2022-11-13T14:47:00.928Z,4.07
2022-11-13T14:49:48.011Z,4.15
2022-11-13T14:52:34.991Z,4.63
2022-11-13T14:55:23.968Z,4.65
2022-11-13T14:58:13.744Z,4.07
2022-11-13T15:01:01.669Z,3.83
2022-11-13T15:03:50.308Z,3.55
2022-11-13T15:06:39.177Z,3.35
2022-11-13T15:09:27.190Z,3.35
2022-11-13T15:12:15.557Z,2.50
2022-11-13T15:15:03.103Z,2.80
2022-11-13T15:17:51.571Z,3.53
2022-11-13T15:20:38.572Z,4.10
2022-11-13T15:23:29.436Z,6.10
2022-11-13T15:26:16.556Z,5.65
2022-11-13T15:29:05.053Z,4.50
2022-11-13T15:31:52.122Z,5.70
2022-11-13T15:34:39.454Z,4.40
2022-11-13T15:37:26.685Z,5.55
2022-11-13T15:40:14.519Z,5.20
2022-11-13T15:43:02.141Z,4.63
2022-11-13T15:45:50.772Z,6.22
2022-11-13T15:48:37.953Z,6.53
2022-11-13T15:51:26.676Z,7.03
2022-11-13T15:54:16.431Z,7.38
2022-11-13T15:57:03.803Z,6.43
2022-11-13T15:59:51.261Z,5.40
2022-11-13T16:02:40.070Z,4.35
2022-11-13T16:05:29.463Z,4.10
2022-11-13T16:08:17.454Z,4.47
2022-11-13T16:11:04.641Z,5.35
2022-11-13T16:13:51.807Z,5.93
2022-11-13T16:16:40.786Z,5.45
2022-11-13T16:19:29.222Z,7.82
2022-11-13T16:22:20.116Z,6.43
2022-11-13T16:25:08.557Z,5.10
2022-11-13T16:27:55.664Z,5.13
2022-11-13T16:30:42.850Z,5.53
2022-11-13T16:33:32.273Z,5.03
2022-11-13T16:36:21.685Z,5.07
2022-11-13T16:39:11.463Z,5.18
2022-11-13T16:41:58.904Z,5.57
2022-11-13T16:44:45.987Z,5.40
2022-11-13T16:47:33.559Z,4.07
2022-11-13T16:50:23.681Z,4.80
2022-11-13T16:53:12.955Z,5.25
2022-11-13T16:56:00.024Z,6.00
2022-11-13T16:58:46.998Z,6.80
2022-11-13T17:01:34.303Z,8.32
2022-11-13T17:04:21.827Z,7.05
2022-11-13T17:07:09.533Z,7.22
2022-11-13T17:10:24.136Z,6.82
2022-11-13T17:13:05.627Z,7.60
2022-11-13T17:15:52.872Z,8.57
2022-11-13T17:18:40.208Z,8.63
2022-11-13T17:21:30.134Z,11.52
2022-11-13T17:24:17.434Z,14.60
2022-11-13T17:27:06.460Z,15.65
2022-11-13T17:29:53.915Z,16.60
2022-11-13T17:32:40.991Z,15.95
2022-11-13T17:35:28.342Z,15.30
2022-11-13T17:38:15.944Z,14.25
2022-11-13T17:41:05.827Z,14.32
2022-11-13T17:43:58.258Z,13.50
2022-11-13T17:46:49.304Z,13.05
2022-11-13T17:49:36.591Z,12.90
2022-11-13T17:52:23.880Z,13.75
2022-11-13T17:55:13.170Z,14.38
2022-11-13T17:58:01.224Z,14.70
2022-11-13T18:00:49.907Z,12.80
2022-11-13T18:03:37.221Z,12.60
2022-11-13T18:06:25.344Z,13.45
2022-11-13T18:09:12.410Z,12.45
2022-11-13T18:11:59.641Z,8.10
2022-11-13T18:14:52.287Z,9.60
2022-11-13T18:17:41.166Z,10.98
2022-11-13T18:20:28.962Z,10.52
2022-11-13T18:23:16.160Z,11.27
2022-11-13T18:26:08.371Z,11.82
2022-11-13T18:28:55.298Z,10.93
2022-11-13T18:31:42.519Z,10.27
2022-11-13T18:34:31.133Z,9.05
2022-11-13T18:37:18.468Z,8.30
2022-11-13T18:40:05.686Z,9.48
2022-11-13T18:42:53.404Z,10.05
2022-11-13T18:45:40.428Z,10.38
2022-11-13T18:48:31.611Z,9.25
2022-11-13T18:51:21.901Z,9.48
2022-11-13T18:54:11.752Z,10.57
2022-11-13T18:56:58.810Z,9.38
2022-11-13T18:59:45.911Z,9.90
2022-11-13T19:02:33.464Z,9.70
2022-11-13T19:05:20.766Z,8.57
2022-11-13T19:08:09.255Z,11.15
2022-11-13T19:10:56.183Z,10.70
2022-11-13T19:13:43.984Z,10.30
2022-11-13T19:16:34.230Z,10.57
2022-11-13T19:19:22.556Z,9.07
2022-11-13T19:22:09.875Z,8.57
2022-11-13T19:24:58.570Z,7.25
2022-11-13T19:27:45.652Z,8.38
2022-11-13T19:30:32.751Z,11.23
2022-11-13T19:33:19.760Z,10.40
2022-11-13T19:36:08.690Z,9.77
2022-11-13T19:38:57.187Z,8.02
2022-11-13T19:41:45.393Z,7.40
2022-11-13T19:44:32.638Z,7.00
2022-11-13T19:47:20.197Z,6.70
2022-11-13T19:50:07.977Z,6.25
2022-11-13T19:52:55.691Z,5.65
2022-11-13T19:55:43.141Z,5.88
2022-11-13T19:58:31.943Z,5.03
2022-11-13T20:01:20.578Z,5.70
2022-11-13T20:04:07.626Z,5.35
2022-11-13T20:06:54.779Z,4.97
2022-11-13T20:09:42.072Z,4.72
2022-11-13T20:12:29.651Z,3.83
2022-11-13T20:15:18.168Z,3.65
2022-11-13T20:18:06.040Z,3.63
2022-11-13T20:20:54.970Z,3.80
2022-11-13T20:23:42.470Z,4.10
2022-11-13T20:26:29.972Z,3.53
2022-11-13T20:29:17.430Z,3.97
2022-11-13T20:32:06.243Z,2.92
2022-11-13T20:34:53.720Z,2.65
2022-11-13T20:37:41.216Z,2.42
2022-11-13T20:40:28.415Z,2.60
2022-11-13T20:43:15.419Z,2.25
2022-11-13T20:46:03.281Z,2.10
2022-11-13T20:48:52.244Z,2.25
2022-11-13T20:51:39.691Z,2.53
2022-11-13T20:54:27.466Z,2.40
2022-11-13T20:57:14.667Z,2.33
2022-11-13T21:00:01.783Z,2.45
2022-11-13T21:02:48.656Z,2.38
2022-11-13T21:05:37.700Z,2.10
2022-11-13T21:08:24.926Z,1.92
2022-11-13T21:11:15.137Z,1.83
2022-11-13T21:14:02.089Z,1.52
2022-11-13T21:16:49.379Z,1.48
2022-11-13T21:19:36.436Z,1.40
2022-11-13T21:22:24.945Z,1.23
2022-11-13T21:25:11.921Z,1.77
2022-11-13T21:27:59.204Z,1.70
2022-11-13T21:30:46.226Z,1.80
2022-11-13T21:33:37.225Z,1.70
2022-11-13T21:36:25.263Z,1.70
2022-11-13T21:39:13.647Z,2.17
2022-11-13T21:42:01.128Z,1.80
2022-11-13T21:44:48.313Z,2.15
2022-11-13T21:47:35.720Z,1.90
2022-11-13T21:50:23.199Z,1.80
2022-11-13T21:53:10.623Z,1.80
2022-11-13T21:55:59.005Z,1.98
2022-11-13T21:58:46.439Z,1.83
2022-11-13T22:01:38.158Z,1.83
2022-11-13T22:04:26.372Z,2.03
2022-11-13T22:07:14.363Z,2.17
2022-11-13T22:10:06.925Z,2.15
2022-11-13T22:12:57.042Z,1.85
2022-11-13T22:15:44.302Z,1.90
2022-11-13T22:18:31.626Z,2.30
2022-11-13T22:21:18.986Z,2.45
2022-11-13T22:24:06.387Z,3.15
2022-11-13T22:26:53.704Z,2.40
2022-11-13T22:29:42.491Z,2.88
2022-11-13T22:32:30.664Z,2.97
2022-11-13T22:35:18.137Z,2.75
2022-11-13T22:38:05.627Z,3.70
2022-11-13T22:40:53.083Z,2.20
2022-11-13T22:43:42.127Z,3.10
2022-11-13T22:46:31.828Z,2.05
2022-11-13T22:49:19.227Z,2.40
2022-11-13T22:52:06.297Z,2.40
2022-11-13T22:54:53.759Z,2.17
2022-11-13T22:57:40.748Z,2.35
2022-11-13T23:00:27.642Z,2.67
2022-11-13T23:03:16.314Z,3.17
2022-11-13T23:06:03.823Z,2.75
2022-11-13T23:08:51.151Z,3.42
2022-11-13T23:11:39.233Z,2.90
2022-11-13T23:14:26.358Z,2.70
2022-11-13T23:17:13.564Z,2.72
2022-11-13T23:20:01.947Z,2.97
2022-11-13T23:22:48.892Z,3.70
2022-11-13T23:25:36.224Z,3.33
2022-11-13T23:28:23.381Z,3.22
2022-11-13T23:31:10.409Z,3.60
2022-11-13T23:33:57.675Z,4.43
2022-11-13T23:36:46.560Z,3.92
2022-11-13T23:39:33.647Z,3.60
2022-11-13T23:42:39.218Z,4.03
2022-11-13T23:45:27.880Z,3.40
2022-11-13T23:48:15.299Z,3.17
2022-11-13T23:51:02.603Z,3.30
2022-11-13T23:53:51.073Z,3.58
2022-11-13T23:56:38.380Z,3.53
2022-11-13T23:59:25.424Z,3.88
